Flight Track Log - Related Links

Times and Time Zones

All times are in EDT time to prevent confusion due to time zone crossing. See the EJA396 flight status page for this flight to view local times or setup timezone preferences in your user account.

Time Position Orientation Groundspeed Altitude Reporting Facility
EDT Latitude Longitude Course Direction KTS MPH feet Rate Location/Type
Tue 10:41:09 AM 37.6431 -122.3714 338° Northwest 203 234 1,700  Level Oakland Center
Tue 10:41:40 AM 37.6667 -122.3833 338° Northwest 236 272 3,600 4,220 Climbing Northern Cal TRACON
Tue 10:42:40 AM 37.6333 -122.4500 238° Southwest 260 299 8,100 4,174 Climbing Northern Cal TRACON
Tue 10:43:12 AM 37.6031 -122.4544 187° South 251 289 10,000 3,383 Climbing Oakland Center
Tue 10:44:14 AM 37.5267 -122.4525 179° South 290 334 13,400 3,268 Climbing Oakland Center
Tue 10:45:15 AM 37.4642 -122.3700 134° Southeast 327 376 16,700 2,803 Climbing Oakland Center
Tue 10:46:16 AM 37.3981 -122.2825 134° Southeast 343 395 19,100 2,213 Climbing Oakland Center
Tue 10:47:17 AM 37.3242 -122.1825 133° Southeast 385 443 21,200 2,146 Climbing Oakland Center
Tue 10:48:19 AM 37.2317 -122.0564 133° Southeast 412 474 23,500 2,000 Climbing Oakland Center
Tue 10:49:20 AM 37.1511 -121.9458 132° Southeast 431 496 25,300 1,672 Climbing Oakland Center
Tue 10:50:21 AM 37.0661 -121.8336 133° Southeast 443 510 26,900 1,415 Climbing Oakland Center
Tue 10:51:23 AM 36.9781 -121.7197 134° Southeast 454 522 28,200 1,366 Climbing Oakland Center
Tue 10:52:24 AM 36.8919 -121.6025 133° Southeast 458 527 29,700 1,525 Climbing Oakland Center
Tue 10:53:25 AM 36.8014 -121.4806 133° Southeast 458 527 31,300 1,512 Climbing Oakland Center
Tue 10:54:27 AM 36.7147 -121.3639 133° Southeast 460 529 32,800 829 Climbing Oakland Center
Tue 10:55:28 AM 36.6261 -121.2475 133° Southeast 462 532 33,000 98 Climbing Oakland Center
Tue 10:56:29 AM 36.5381 -121.1281 133° Southeast 467 537 33,000  Level Oakland Center
Tue 10:57:31 AM 36.4486 -121.0139 134° Southeast 463 533 33,000  Level Oakland Center
Tue 10:58:32 AM 36.3600 -120.8969 133° Southeast 464 534 33,000  Level Oakland Center
Tue 10:59:33 AM 36.2717 -120.7800 133° Southeast 464 534 33,000  Level Oakland Center
Tue 11:00:34 AM 36.1639 -120.6425 134° Southeast 464 534 33,000  Level Oakland Center
Tue 11:01:36 AM 36.0750 -120.5250 133° Southeast 467 537 33,000  Level Oakland Center
Tue 11:02:37 AM 35.9850 -120.4100 134° Southeast 466 536 33,000  Level Oakland Center
Tue 11:03:38 AM 35.8961 -120.2956 134° Southeast 462 532 33,000  Level Oakland Center
Tue 11:04:40 AM 35.8064 -120.1803 134° Southeast 463 533 33,000  Level Oakland Center
Tue 11:05:41 AM 35.7117 -120.0697 137° Southeast 465 535 33,000  Level Oakland Center
Tue 11:06:42 AM 35.6050 -119.9744 144° Southeast 468 539 33,000  Level Oakland Center
Tue 11:07:04 AM 35.5619 -119.9369 145° Southeast 470 541 33,000  Level Los Angeles Center
Tue 11:08:06 AM 35.4542 -119.8403 144° Southeast 475 547 33,000  Level Los Angeles Center
Tue 11:08:45 AM 35.3894 -119.7819 144° Southeast 475 547 33,000  Level Oakland Center
Tue 11:09:08 AM 35.3467 -119.7442 144° Southeast 475 547 33,000  Level Los Angeles Center
Tue 11:10:10 AM 35.2397 -119.6494 144° Southeast 473 544 33,000  Level Los Angeles Center
Tue 11:11:12 AM 35.1325 -119.5547 144° Southeast 474 545 33,000  Level Los Angeles Center
Tue 11:12:14 AM 35.0244 -119.4603 144° Southeast 476 548 33,000  Level Los Angeles Center
Tue 11:13:16 AM 34.8956 -119.3464 144° Southeast 476 548 33,000 -97 Level Los Angeles Center
Tue 11:14:18 AM 34.7883 -119.2528 144° Southeast 475 547 32,800 -774 Descending Los Angeles Center
Tue 11:15:20 AM 34.6836 -119.1606 144° Southeast 469 540 31,400 -1,887 Descending Los Angeles Center
Tue 11:16:22 AM 34.5817 -119.0736 145° Southeast 457 526 28,900 -2,371 Descending Los Angeles Center
Tue 11:17:24 AM 34.4778 -118.9861 145° Southeast 454 522 26,500 -2,468 Descending Los Angeles Center
Tue 11:18:26 AM 34.3692 -118.8936 145° Southeast 439 505 23,800 -2,516 Descending Los Angeles Center
Tue 11:19:28 AM 34.2589 -118.8456 160° South 393 452 21,300 -2,177 Descending Los Angeles Center
Tue 11:20:30 AM 34.1564 -118.8075 163° South 387 445 19,300 -2,032 Descending Los Angeles Center
Tue 11:21:32 AM 34.0481 -118.7672 163° South 381 438 17,100 -2,032 Descending Los Angeles Center
Tue 11:22:34 AM 33.9497 -118.7314 163° South 374 430 15,100 -1,488 Descending Los Angeles Center
Tue 11:23:37 AM 33.8486 -118.6942 163° South 358 412 14,000 -528 Descending Los Angeles Center
Tue 11:24:39 AM 33.7542 -118.6594 163° South 356 410 14,000 -871 Level Los Angeles Center
Tue 11:25:41 AM 33.6586 -118.6244 163° South 330 380 12,200 -1,935 Descending Los Angeles Center
Tue 11:26:43 AM 33.5836 -118.5931 161° South 293 337 10,000 -2,177 Descending Los Angeles Center
Tue 11:27:45 AM 33.5169 -118.5381 145° Southeast 275 316 7,700 -2,177 Descending Los Angeles Center
Tue 11:28:47 AM 33.5211 -118.4483 87° East 274 315 5,500 -1,403 Descending Los Angeles Center
Tue 11:29:49 AM 33.5386 -118.3569 77° East 265 305 4,800 -1,113 Descending Los Angeles Center
Tue 11:30:51 AM 33.5533 -118.2758 78° East 254 292 3,200 -871 Descending Los Angeles Center
Tue 11:31:53 AM 33.5842 -118.2175 58° Northeast 197 227 3,000 -532 Descending Los Angeles Center
Tue 11:32:55 AM 33.6308 -118.1836 31° Northeast 196 226 2,100 -484 Descending Los Angeles Center
Tue 11:33:57 AM 33.6872 -118.1722 10° North 210 242 2,000 -97 Descending Los Angeles Center
Tue 11:34:59 AM 33.7253 -118.2183 315° West 200 230 1,900 -48 Descending Los Angeles Center
Tue 11:36:01 AM 33.7528 -118.2592 309° West 156 180 1,900 -339 Level Los Angeles Center
Tue 11:37:03 AM 33.7767 -118.2972 307° West 130 150 1,200 -629 Descending Los Angeles Center
Tue 11:38:05 AM 33.7986 -118.3281 311° West 127 146 600 -581 Descending Los Angeles Center
Tue 11:40:00 AM 33.8000 -118.3333 North  Level FlightAware Approximate

Login

Don't have an account? Register now (free) for customized features, flight alerts, and more!